Flight Track Log - Related Links

Times and Time Zones

All times are in EDT time to prevent confusion due to time zone crossing. See the N40BZ flight status page for this flight to view local times or setup timezone preferences in your user account.


Time Position Orientation Groundspeed Altitude Reporting Facility
EDT Latitude Longitude Course Direction KTS MPH feet Rate Location/Type
Fri 12:02:44 PM 40.9333 -72.3500 304° West 122 140 2,900  Level New York TRACON
Fri 12:03:44 PM 40.9500 -72.3833 304° West 121 139 3,900 550 Climbing New York TRACON
Fri 12:04:44 PM 40.9833 -72.4167 323° Northwest 145 167 4,000 100 Climbing New York TRACON
Fri 12:05:44 PM 41.0167 -72.4667 311° West 159 183 4,100 50 Climbing New York TRACON
Fri 12:06:44 PM 41.0500 -72.5000 323° Northwest 161 185 4,100  Level New York TRACON
Fri 12:07:00 PM 41.0366 -72.6029 282° West  Level FlightAware Approximate
Fri 12:07:38 PM 41.0667 -72.5500 294° West 160 184 4,100  Level New York TRACON
Fri 12:08:38 PM 41.0833 -72.6000 294° West 166 191 4,000 -48 Descending New York TRACON
Fri 12:09:44 PM 41.1167 -72.6500 312° West 166 191 4,000  Level New York TRACON
Fri 12:10:44 PM 41.1333 -72.7167 288° West 172 198 4,000  Level New York TRACON
Fri 12:11:44 PM 41.1500 -72.7667 294° West 168 193 4,000  Level New York TRACON
Fri 12:12:44 PM 41.1667 -72.8333 288° West 167 192 4,000  Level New York TRACON
Fri 12:13:44 PM 41.1833 -72.8833 294° West 169 194 4,000  Level New York TRACON
Fri 12:14:38 PM 41.2000 -72.9333 294° West 165 190 4,000  Level New York TRACON
Fri 12:15:38 PM 41.2167 -72.9833 294° West 168 193 4,000  Level New York TRACON
Fri 12:16:44 PM 41.2333 -73.0500 288° West 167 192 4,000 95 Level New York TRACON
Fri 12:17:44 PM 41.2667 -73.1000 312° West 163 188 4,200 450 Climbing New York TRACON
Fri 12:18:44 PM 41.2667 -73.1500 270° West 150 173 4,900 900 Climbing New York TRACON
Fri 12:19:44 PM 41.2833 -73.2000 294° West 139 160 6,000 550 Climbing New York TRACON
Fri 12:20:44 PM 41.3000 -73.2667 288° West 161 185 6,000  Level New York TRACON
Fri 12:21:44 PM 41.3167 -73.3167 294° West 171 197 6,000  Level New York TRACON
Fri 12:22:44 PM 41.3333 -73.3667 294° West 173 199 6,000  Level New York TRACON
Fri 12:23:44 PM 41.3167 -73.4333 252° West 178 205 6,000  Level New York TRACON
Fri 12:24:38 PM 41.3000 -73.5000 252° West 180 207 6,000  Level New York TRACON
Fri 12:25:38 PM 41.3000 -73.5500 270° West 177 204 6,000  Level New York TRACON
Fri 12:26:50 PM 41.2667 -73.6333 242° Southwest 178 205 6,000 190 Level New York TRACON
Fri 12:27:44 PM 41.2667 -73.6833 270° West 165 190 6,400 474 Climbing New York TRACON
Fri 12:28:44 PM 41.2500 -73.7333 246° West 156 180 6,900 600 Climbing New York TRACON
Fri 12:29:44 PM 41.2500 -73.8000 270° West 159 183 7,600 700 Climbing New York TRACON
Fri 12:30:44 PM 41.2667 -73.8500 294° West 154 177 8,300 800 Climbing New York TRACON
Fri 12:31:44 PM 41.2833 -73.9000 294° West 149 171 9,200 850 Climbing New York TRACON
Fri 12:32:44 PM 41.3000 -73.9500 294° West 152 175 10,000 650 Climbing New York TRACON
Fri 12:33:44 PM 41.3167 -74.0000 294° West 163 188 10,500 250 Climbing New York TRACON
Fri 12:34:44 PM 41.3333 -74.0500 294° West 177 204 10,500  Level New York TRACON
Fri 12:35:44 PM 41.3667 -74.1167 304° West 183 211 10,500  Level New York TRACON
Fri 12:37:10 PM 41.3925 -74.2056 291° West 181 208 10,500  Level Boston Center
Fri 12:38:11 PM 41.4125 -74.2586 297° West 181 208 10,500  Level Boston Center
Fri 12:39:12 PM 41.4364 -74.3258 295° West 181 208 10,500  Level Boston Center
Fri 12:40:12 PM 41.4564 -74.3761 298° West 174 200 10,500  Level Boston Center
Fri 12:41:10 PM 41.4803 -74.4433 295° West 180 207 10,500  Level Boston Center
Fri 12:42:34 PM 41.5119 -74.5275 297° West 180 207 10,500  Level Boston Center
Fri 12:43:35 PM 41.5297 -74.5836 293° West 180 207 10,500  Level Boston Center
Fri 12:44:35 PM 41.5556 -74.6483 298° West 180 207 10,500  Level Boston Center
Fri 12:45:35 PM 41.5753 -74.7072 294° West 180 207 10,500  Level Boston Center
Fri 12:46:36 PM 41.5989 -74.7719 296° West 180 207 10,500  Level Boston Center
Fri 12:47:34 PM 41.6186 -74.8283 295° West 180 207 10,500  Level Boston Center
Fri 12:50:08 PM 41.6778 -74.9869 297° West 200 230 10,500 -28 Level New York Center
Fri 12:51:08 PM 41.6967 -75.0436 294° West 191 220 10,400 -51 Descending New York Center
Fri 12:52:06 PM 41.7211 -75.1119 296° West 191 220 10,400  Level New York Center
Fri 12:53:08 PM 41.7439 -75.1717 297° West 186 214 10,400  Level New York Center
Fri 12:54:08 PM 41.7647 -75.2314 295° West 186 214 10,400  Level New York Center
Fri 12:55:06 PM 41.7853 -75.2883 296° West 181 208 10,400 -454 Level New York Center
Fri 12:56:07 PM 41.8058 -75.3511 294° West 181 208 9,500 50 Descending New York Center
Fri 12:57:07 PM 41.8303 -75.4194 296° West 181 208 10,500 496 Climbing New York Center
Fri 12:58:08 PM 41.8528 -75.4797 297° West 181 208 10,500  Level New York Center
Fri 12:59:06 PM 41.8733 -75.5394 295° West 181 208 10,500  Level New York Center
Fri 01:00:06 PM 41.8919 -75.5939 295° West 181 208 10,500  Level New York Center
Fri 01:01:07 PM 41.9164 -75.6597 297° West 181 208 10,500  Level New York Center
Fri 01:02:08 PM 41.9350 -75.7167 294° West 181 208 10,500  Level New York Center
Fri 01:03:08 PM 41.9575 -75.7742 298° West 181 208 10,500  Level New York Center
Fri 01:04:08 PM 41.9794 -75.8428 293° West 181 208 10,500  Level New York Center
Fri 01:05:06 PM 41.9997 -75.9031 294° West 181 208 10,500  Level New York Center
Fri 01:06:06 PM 42.0183 -75.9575 295° West 181 208 10,500  Level New York Center
Fri 01:07:07 PM 42.0406 -76.0208 295° West 181 208 10,500  Level New York Center
Fri 01:08:06 PM 42.0628 -76.0811 296° West 181 208 10,500  Level New York Center
Fri 01:09:06 PM 42.0831 -76.1414 294° West 181 208 10,500  Level New York Center
Fri 01:10:07 PM 42.1053 -76.2019 296° West 181 208 10,500  Level New York Center
Fri 01:11:08 PM 42.1253 -76.2650 293° West 181 208 10,500  Level New York Center
Fri 01:12:08 PM 42.1475 -76.3256 296° West 181 208 10,500  Level New York Center
Fri 01:13:08 PM 42.1694 -76.3892 295° West 181 208 10,500 -51 Level New York Center
Fri 01:14:06 PM 42.1894 -76.4497 294° West 181 208 10,400 -51 Descending New York Center
Fri 01:15:06 PM 42.2092 -76.5128 293° West 181 208 10,400  Level New York Center
Fri 01:16:07 PM 42.2333 -76.5767 297° West 181 208 10,400  Level New York Center
Fri 01:17:07 PM 42.2531 -76.6372 294° West 181 208 10,400  Level New York Center
Fri 01:18:20 PM 42.2850 -76.7236 297° West 178 205 10,400  Level Cleveland Center
Fri 01:19:20 PM 42.3039 -76.7844 293° West 178 205 10,400  Level Cleveland Center
Fri 01:20:20 PM 42.3267 -76.8475 296° West 178 205 10,400  Level Cleveland Center
Fri 01:21:20 PM 42.3475 -76.9111 294° West 178 205 10,400  Level Cleveland Center
Fri 01:22:20 PM 42.3681 -76.9717 295° West 183 211 10,400  Level Cleveland Center
Fri 01:23:20 PM 42.3889 -77.0350 294° West 188 216 10,400 54 Level Cleveland Center
Fri 01:24:11 PM 42.4072 -77.0875 295° West 184 212 10,500 50 Climbing Cleveland Center
Fri 01:25:20 PM 42.4325 -77.1622 295° West 188 216 10,500 49 Level Cleveland Center
Fri 01:26:13 PM 42.4464 -77.2119 291° West 181 208 10,600 53 Climbing Cleveland Center
Fri 01:27:13 PM 42.4669 -77.2756 294° West 182 209 10,600 -47 Level Cleveland Center
Fri 01:28:20 PM 42.4942 -77.3475 297° West 188 216 10,500  Descending Cleveland Center
Fri 01:29:14 PM 42.5100 -77.4003 292° West 182 209 10,600 52 Climbing Cleveland Center
Fri 01:30:15 PM 42.5308 -77.4669 293° West 185 213 10,600 -48 Level Cleveland Center
Fri 01:31:20 PM 42.5575 -77.5361 298° West 182 209 10,500  Descending Cleveland Center
Fri 01:32:16 PM 42.5739 -77.5972 290° West 182 209 10,600 51 Climbing Cleveland Center
Fri 01:33:17 PM 42.5942 -77.6583 294° West 181 208 10,600 -94 Level Cleveland Center
Fri 01:33:20 PM 42.5942 -77.6583 294° West 187 215 10,500  Descending Cleveland Center
Fri 01:34:17 PM 42.6122 -77.7194 292° West 182 209 10,600 51 Climbing Cleveland Center
Fri 01:35:18 PM 42.6325 -77.7836 293° West 180 207 10,600 -160 Level Cleveland Center
Fri 01:37:25 PM 42.6833 -77.9167 297° West 184 212 10,100 -385 Descending Buffalo TRACON
Fri 01:38:25 PM 42.7000 -77.9833 289° West 201 231 9,400 -694 Descending Buffalo TRACON
Fri 01:39:26 PM 42.7333 -78.0500 304° West 201 231 8,700 -700 Descending Buffalo TRACON
Fri 01:40:25 PM 42.7500 -78.1167 289° West 199 229 8,000 -684 Descending Buffalo TRACON
Fri 01:41:20 PM 42.7667 -78.1833 289° West 199 229 7,400 -678 Descending Buffalo TRACON
Fri 01:42:20 PM 42.7833 -78.2500 289° West 198 228 6,700 -714 Descending Buffalo TRACON
Fri 01:43:26 PM 42.8167 -78.3167 304° West 197 227 5,900 -714 Descending Buffalo TRACON
Fri 01:44:26 PM 42.8333 -78.3833 289° West 195 224 5,200 -750 Descending Buffalo TRACON
Fri 01:45:26 PM 42.8667 -78.4500 304° West 187 215 4,400 -619 Descending Buffalo TRACON
Fri 01:46:32 PM 42.9000 -78.5000 312° West 156 180 3,900 -500 Descending Buffalo TRACON
Fri 01:47:26 PM 42.9167 -78.5333 304° West 150 173 3,400 -474 Descending Buffalo TRACON
Fri 01:48:26 PM 42.9667 -78.5667 334° Northwest 161 185 3,000 -600 Descending Buffalo TRACON
Fri 01:49:26 PM 42.9667 -78.6167 270° West 178 205 2,200 -750 Descending Buffalo TRACON
Fri 01:50:26 PM 42.9667 -78.6833 270° West 161 185 1,500 -700 Descending Buffalo TRACON
Fri 01:51:26 PM 42.9500 -78.7167 236° Southwest 108 124 800 -700 Descending Buffalo TRACON
Fri 01:53:00 PM 42.9333 -78.7167 294° West  Level FlightAware Approximate
Fri 02:00:00 PM 42.9404 -78.7306 294° West  Level Estimated

Login

Don't have an account? Register now (free) for customized features, flight alerts, and more!